首页
METAR-TAF:

METAR-TAF

机场 :

赫尔辛基-万塔机场

赫尔辛基, 芬兰

纬度: 60-19N, 经度: 024-58E, 海拔: 51米

当前天气观测

该预报发布于26分钟前的15:50 UTC
风速14节,风向
温度 3°C
湿度 93%
气压 983 hPa
能見度: 8000
多云层高于900英尺
小雨

METAR: EFHK 081550Z 18014KT 8000 -RA BKN009 03/02 Q0983 TEMPO 7000 RA

时间: 18:16 (16:16 UTC)

预报

该预报发布于13分钟前的16:03 UTC
预报有效从08日的 16点(UTC)到 09日的 15点(UTC)
风速10节,风向南转南东
能見度: 6000
多云层高于800英尺
短暂存在
从 08日的 16点(UTC)到 08日的 20点(UTC)
能見度: 9000
多云层高于400英尺
小雨
成为
从 08日的 20点(UTC)到 08日的 22点(UTC)
风速18节,风向南转西南
能见度10公里或以上
多云层高于400英尺
小雨
短暂存在
从 08日的 22点(UTC)到 09日的 01点(UTC)
风速20节,风向南转西南,有时为30节阵风
能見度: 6000
散云层高于800英尺
散云层高于2000英尺, 积雨云.
多云层高于2500英尺
阵雨
成为
从 09日的 01点(UTC)到 09日的 03点(UTC)
多云层高于2500英尺
短暂存在
从 09日的 03点(UTC)到 09日的 15点(UTC)
少量云层高于2000英尺, 积雨云.
多云层高于2500英尺

TAF: EFHK 081603Z 0816/0915 15010KT 6000 RA BKN008 TEMPO 0816/0820 9000 -RA BKN004 BECMG 0820/0822 21018KT 9999 -RA BKN004 TEMPO 0822/0901 21020G30KT 6000 SHRA SCT008 SCT020CB BKN025 BECMG 0901/0903 BKN025 TEMPO 0903/0915 FEW020CB BKN025

超过4000个机场的气象观测和天气预报(METAR&TAF报告)。

可查询的气象台以黄色和红色小点在地图上表示。

将鼠标移到小点上方,可查看气象台名称。

然后点击查看天气观测和预报。

如需切换地图:点击带黑十字的绿色按钮放大地图;点击带横线的绿色按钮缩小地图;或者点击绿色箭头查看邻近地区的地图。


METAR-TAF: